Time;durP1;ratioP1;P1;durP2;ratioP2;P2;SDS_P1;SDS_P2;PMS_P1;PMS_P2;Temp;Humidity;BMP_temperature;BMP_pressure;BME280_temperature;BME280_humidity;BME280_pressure;Samples;Min_cycle;Max_cycle;Signal;HPM_P1;HPM_P2
2022/11/15 00:00:28;;;;;;;23.00;15.60;;;;;;;;;;5124411;27;20040;-67
2022/11/15 00:02:54;;;;;;;26.38;15.93;;;;;;;;;;5123316;27;20061;-66
2022/11/15 00:05:20;;;;;;;25.33;16.15;;;;;;;;;;5108541;28;20075;-66
2022/11/15 00:07:46;;;;;;;20.45;15.88;;;;;;;;;;5123931;27;20095;-67
2022/11/15 00:10:12;;;;;;;28.48;18.42;;;;;;;;;;5126099;27;20039;-66
2022/11/15 00:12:39;;;;;;;22.40;16.65;;;;;;;;;;5126096;28;20457;-67
2022/11/15 00:15:05;;;;;;;25.38;17.02;;;;;;;;;;5120827;28;20084;-67
2022/11/15 00:17:31;;;;;;;24.05;17.08;;;;;;;;;;5107488;28;20050;-67
2022/11/15 00:19:57;;;;;;;28.73;17.58;;;;;;;;;;5122255;28;20043;-66
2022/11/15 00:22:24;;;;;;;24.10;16.50;;;;;;;;;;5126846;28;20023;-67
2022/11/15 00:24:50;;;;;;;24.17;15.90;;;;;;;;;;5126401;28;20039;-67
2022/11/15 00:27:16;;;;;;;24.20;15.90;;;;;;;;;;5126305;28;20043;-67
2022/11/15 00:29:43;;;;;;;32.00;18.90;;;;;;;;;;5128275;28;20403;-66
2022/11/15 00:32:12;;;;;;;24.98;17.20;;;;;;;;;;5106404;28;20043;-67
2022/11/15 00:34:38;;;;;;;23.90;16.63;;;;;;;;;;5121347;28;20065;-66
2022/11/15 00:37:04;;;;;;;26.25;18.20;;;;;;;;;;5125801;28;20361;-67
2022/11/15 00:39:30;;;;;;;24.10;16.15;;;;;;;;;;5109322;28;20039;-66
2022/11/15 00:41:56;;;;;;;26.77;16.27;;;;;;;;;;5124914;28;20042;-66
2022/11/15 00:44:22;;;;;;;24.95;17.27;;;;;;;;;;5127324;28;20039;-66
2022/11/15 00:46:49;;;;;;;21.38;15.82;;;;;;;;;;5119753;28;20061;-66
2022/11/15 00:49:15;;;;;;;24.48;17.42;;;;;;;;;;5120768;28;20437;-67
2022/11/15 00:51:41;;;;;;;24.17;15.23;;;;;;;;;;5124372;28;20032;-66
2022/11/15 00:54:07;;;;;;;26.58;17.23;;;;;;;;;;5126085;28;20105;-67
2022/11/15 00:56:33;;;;;;;26.27;17.58;;;;;;;;;;5108395;28;20573;-66
2022/11/15 00:58:59;;;;;;;24.13;16.83;;;;;;;;;;5122976;28;20047;-67
2022/11/15 01:01:25;;;;;;;23.83;17.75;;;;;;;;;;5123755;28;20031;-66
2022/11/15 01:03:51;;;;;;;24.65;17.48;;;;;;;;;;5123597;28;20032;-67
2022/11/15 01:06:18;;;;;;;24.15;16.67;;;;;;;;;;5107814;28;20591;-66
2022/11/15 01:08:44;;;;;;;22.10;16.40;;;;;;;;;;5117950;27;20233;-66
2022/11/15 01:11:11;;;;;;;25.02;17.33;;;;;;;;;;5130466;27;20042;-67
2022/11/15 01:13:38;;;;;;;26.33;18.58;;;;;;;;;;5128795;27;20111;-67
2022/11/15 01:16:08;;;;;;;26.95;17.70;;;;;;;;;;5126686;27;20042;-67
2022/11/15 01:18:34;;;;;;;23.40;16.70;;;;;;;;;;5128969;27;20087;-67
2022/11/15 01:21:00;;;;;;;22.73;17.15;;;;;;;;;;5095673;27;20035;-67
2022/11/15 01:23:26;;;;;;;24.77;16.58;;;;;;;;;;5109093;27;20042;-67
2022/11/15 01:25:52;;;;;;;29.30;17.92;;;;;;;;;;5111648;27;20392;-67
2022/11/15 01:28:18;;;;;;;26.92;18.35;;;;;;;;;;5112563;27;20047;-66
2022/11/15 01:30:44;;;;;;;25.75;18.30;;;;;;;;;;5128441;27;20605;-67
2022/11/15 01:33:10;;;;;;;24.20;16.90;;;;;;;;;;5119462;27;20095;-67
2022/11/15 01:35:39;;;;;;;25.95;16.65;;;;;;;;;;5126168;27;20031;-66
2022/11/15 01:38:05;;;;;;;23.50;16.70;;;;;;;;;;5118999;27;20126;-66
2022/11/15 01:40:32;;;;;;;24.60;16.48;;;;;;;;;;5126065;27;20141;-67
2022/11/15 01:42:58;;;;;;;22.05;17.42;;;;;;;;;;5120519;27;20034;-68
2022/11/15 01:45:24;;;;;;;28.23;17.75;;;;;;;;;;5121000;27;20043;-67
2022/11/15 01:47:53;;;;;;;26.33;17.67;;;;;;;;;;5120304;27;20043;-67
2022/11/15 01:50:22;;;;;;;27.13;18.00;;;;;;;;;;5115181;27;20036;-68
2022/11/15 01:52:48;;;;;;;25.73;18.75;;;;;;;;;;5121131;27;20039;-67
2022/11/15 01:55:20;;;;;;;27.75;18.33;;;;;;;;;;5124158;27;20511;-68
2022/11/15 01:57:48;;;;;;;26.80;20.05;;;;;;;;;;5104361;28;20609;-67
2022/11/15 02:00:14;;;;;;;28.52;19.35;;;;;;;;;;5125398;27;20058;-67
2022/11/15 02:02:41;;;;;;;30.08;19.83;;;;;;;;;;5121099;27;20063;-68
2022/11/15 02:05:07;;;;;;;26.98;19.20;;;;;;;;;;5128385;27;20035;-68
2022/11/15 02:07:34;;;;;;;27.67;19.70;;;;;;;;;;5105744;27;20539;-67
2022/11/15 02:10:05;;;;;;;26.85;19.50;;;;;;;;;;5107767;27;20039;-67
2022/11/15 02:12:31;;;;;;;32.70;20.27;;;;;;;;;;5102128;27;20049;-68
2022/11/15 02:14:58;;;;;;;25.15;17.35;;;;;;;;;;5111421;27;20043;-68
2022/11/15 02:17:27;;;;;;;24.88;17.63;;;;;;;;;;5118583;27;20042;-68
2022/11/15 02:20:22;;;;;;;29.60;18.38;;;;;;;;;;5118241;27;20504;-69
2022/11/15 02:22:57;;;;;;;29.65;19.17;;;;;;;;;;5070623;28;20075;-67
2022/11/15 02:25:34;;;;;;;25.67;17.95;;;;;;;;;;5121184;27;20031;-67
2022/11/15 02:28:19;;;;;;;27.40;16.05;;;;;;;;;;5089005;27;20040;-68
2022/11/15 02:30:48;;;;;;;21.95;15.70;;;;;;;;;;5117943;27;20035;-68
2022/11/15 02:33:26;;;;;;;21.33;15.50;;;;;;;;;;5109116;27;20095;-68
2022/11/15 02:35:58;;;;;;;22.75;16.15;;;;;;;;;;5120647;27;20083;-68
2022/11/15 02:38:34;;;;;;;28.52;16.88;;;;;;;;;;5125309;27;20435;-68
2022/11/15 02:41:03;;;;;;;25.17;17.13;;;;;;;;;;5121706;27;20059;-68
2022/11/15 02:43:57;;;;;;;21.02;15.68;;;;;;;;;;5108326;27;20050;-68
2022/11/15 02:47:12;;;;;;;30.77;17.95;;;;;;;;;;5119484;27;20099;-68
2022/11/15 02:49:13;;;;;;;24.42;16.02;;;;;;;;;;5119883;27;20054;-67
2022/11/15 02:51:40;;;;;;;21.63;15.80;;;;;;;;;;5109545;27;20061;-68
2022/11/15 02:54:06;;;;;;;25.45;17.75;;;;;;;;;;5109845;27;20447;-68
2022/11/15 02:56:32;;;;;;;26.98;18.83;;;;;;;;;;5121498;27;20461;-67
2022/11/15 02:59:10;;;;;;;26.92;18.65;;;;;;;;;;5124478;27;20051;-68
2022/11/15 03:01:47;;;;;;;31.63;18.60;;;;;;;;;;5124234;27;20047;-68
2022/11/15 03:04:31;;;;;;;29.65;18.55;;;;;;;;;;5121653;27;20389;-68
2022/11/15 03:07:11;;;;;;;28.45;19.27;;;;;;;;;;5108713;27;20515;-67
2022/11/15 03:09:37;;;;;;;35.25;19.70;;;;;;;;;;5109221;27;20039;-67
2022/11/15 03:12:21;;;;;;;34.70;19.42;;;;;;;;;;5126067;27;20400;-68
2022/11/15 03:14:47;;;;;;;37.60;21.45;;;;;;;;;;5126266;27;20096;-69
2022/11/15 03:17:13;;;;;;;32.15;20.08;;;;;;;;;;5118152;27;20043;-69
2022/11/15 03:19:44;;;;;;;31.60;18.65;;;;;;;;;;5127163;27;20476;-69
2022/11/15 03:22:12;;;;;;;32.35;20.83;;;;;;;;;;5106669;28;20067;-69
2022/11/15 03:24:39;;;;;;;36.67;20.95;;;;;;;;;;5093118;27;20121;-69
2022/11/15 03:27:07;;;;;;;34.55;21.80;;;;;;;;;;5103201;27;20559;-69
2022/11/15 03:29:34;;;;;;;34.83;21.50;;;;;;;;;;5109356;27;20476;-69
2022/11/15 03:32:13;;;;;;;39.05;22.35;;;;;;;;;;5103474;27;20430;-69
2022/11/15 03:34:49;;;;;;;32.65;22.45;;;;;;;;;;5123920;27;20035;-69
2022/11/15 03:37:16;;;;;;;32.95;19.38;;;;;;;;;;5123809;27;20035;-69
2022/11/15 03:39:43;;;;;;;37.75;22.00;;;;;;;;;;5111303;27;20117;-69
2022/11/15 03:42:18;;;;;;;33.47;20.15;;;;;;;;;;5123413;27;20118;-69
2022/11/15 03:44:52;;;;;;;34.03;21.98;;;;;;;;;;5125726;27;20097;-69
2022/11/15 03:47:18;;;;;;;33.63;19.65;;;;;;;;;;5102897;27;20047;-69
2022/11/15 03:49:46;;;;;;;32.67;22.23;;;;;;;;;;5121672;27;20043;-68
2022/11/15 03:52:12;;;;;;;36.28;21.90;;;;;;;;;;5120308;27;20035;-68
2022/11/15 03:54:48;;;;;;;41.78;23.63;;;;;;;;;;5105705;28;20044;-69
2022/11/15 03:57:14;;;;;;;41.22;21.40;;;;;;;;;;5123566;27;20069;-68
2022/11/15 03:59:40;;;;;;;35.22;20.60;;;;;;;;;;5116651;27;20058;-68
2022/11/15 04:02:06;;;;;;;42.47;22.55;;;;;;;;;;5119988;27;20052;-68
2022/11/15 04:04:32;;;;;;;48.30;22.45;;;;;;;;;;5119970;27;20045;-68
2022/11/15 04:06:58;;;;;;;42.45;24.90;;;;;;;;;;5127242;27;20039;-68
2022/11/15 04:09:24;;;;;;;40.63;22.92;;;;;;;;;;5103062;28;20054;-68
2022/11/15 04:11:50;;;;;;;43.03;24.25;;;;;;;;;;5108107;28;20054;-68
2022/11/15 04:14:17;;;;;;;43.92;24.30;;;;;;;;;;5124805;28;20469;-68
2022/11/15 04:16:43;;;;;;;38.83;21.83;;;;;;;;;;5117569;28;20116;-68
2022/11/15 04:24:38;;;;;;;42.55;24.13;;;;;;;;;;5120286;28;20039;-68
2022/11/15 04:27:04;;;;;;;46.33;22.52;;;;;;;;;;5113469;28;20400;-68
2022/11/15 04:29:36;;;;;;;40.92;23.05;;;;;;;;;;5117395;28;20130;-68
2022/11/15 04:32:06;;;;;;;46.33;24.00;;;;;;;;;;5110375;28;20051;-68
2022/11/15 04:34:32;;;;;;;42.90;24.48;;;;;;;;;;5126440;28;20036;-68
2022/11/15 04:37:11;;;;;;;38.75;24.90;;;;;;;;;;5123331;28;20035;-68
2022/11/15 04:39:37;;;;;;;47.45;22.05;;;;;;;;;;5097480;28;20378;-68
2022/11/15 04:42:04;;;;;;;41.08;22.45;;;;;;;;;;5101894;27;20341;-68
2022/11/15 04:44:30;;;;;;;43.05;22.50;;;;;;;;;;5130866;27;20042;-68
2022/11/15 04:46:57;;;;;;;46.05;25.30;;;;;;;;;;5109141;27;20049;-69
2022/11/15 04:49:23;;;;;;;43.58;24.67;;;;;;;;;;5110704;27;20450;-68
2022/11/15 04:51:49;;;;;;;40.13;23.83;;;;;;;;;;5108052;27;20039;-68
2022/11/15 04:54:15;;;;;;;51.28;24.77;;;;;;;;;;5112825;27;20057;-68
2022/11/15 04:56:41;;;;;;;37.90;21.85;;;;;;;;;;5119335;27;20199;-68
2022/11/15 04:59:07;;;;;;;45.13;23.40;;;;;;;;;;5129435;27;20274;-68
2022/11/15 05:01:33;;;;;;;38.85;24.25;;;;;;;;;;5106970;27;20389;-68
2022/11/15 05:06:44;;;;;;;49.22;23.20;;;;;;;;;;5125741;27;20095;-68
2022/11/15 05:09:12;;;;;;;38.60;24.35;;;;;;;;;;5126681;27;20043;-68
2022/11/15 05:11:39;;;;;;;48.78;26.67;;;;;;;;;;5129490;27;20377;-68
2022/11/15 05:14:05;;;;;;;46.40;23.85;;;;;;;;;;5124116;27;20156;-68
2022/11/15 05:16:31;;;;;;;43.53;24.80;;;;;;;;;;5122888;27;20043;-68
2022/11/15 05:18:57;;;;;;;44.45;25.38;;;;;;;;;;5117016;27;20039;-68
2022/11/15 05:21:23;;;;;;;54.40;27.23;;;;;;;;;;5127022;27;20031;-68
2022/11/15 05:23:49;;;;;;;45.83;26.08;;;;;;;;;;5123587;27;20044;-68
2022/11/15 05:26:17;;;;;;;44.65;27.13;;;;;;;;;;5111560;27;20050;-68
2022/11/15 05:28:43;;;;;;;43.60;25.77;;;;;;;;;;5122197;27;20035;-68
2022/11/15 05:31:16;;;;;;;54.28;28.02;;;;;;;;;;5126759;27;20042;-68
2022/11/15 05:33:43;;;;;;;58.08;27.88;;;;;;;;;;5121505;27;20395;-69
2022/11/15 05:36:12;;;;;;;54.55;29.63;;;;;;;;;;5125460;27;20041;-69
2022/11/15 05:38:38;;;;;;;45.83;27.55;;;;;;;;;;5092062;27;20114;-69
2022/11/15 05:41:05;;;;;;;64.53;30.45;;;;;;;;;;5121409;27;20039;-69
2022/11/15 05:43:33;;;;;;;53.67;27.80;;;;;;;;;;5110330;27;20523;-69
2022/11/15 05:46:00;;;;;;;62.53;33.45;;;;;;;;;;5123496;27;20035;-68
2022/11/15 05:48:26;;;;;;;58.35;31.73;;;;;;;;;;5126182;27;20074;-69
2022/11/15 05:50:53;;;;;;;53.72;31.98;;;;;;;;;;5126762;27;20398;-69
2022/11/15 05:53:20;;;;;;;59.67;33.75;;;;;;;;;;5118860;27;20710;-68
2022/11/15 05:55:46;;;;;;;56.05;28.83;;;;;;;;;;5127207;27;20027;-69
2022/11/15 05:58:12;;;;;;;63.63;33.17;;;;;;;;;;5121860;27;20059;-69
2022/11/15 06:00:38;;;;;;;61.97;34.03;;;;;;;;;;5116480;27;20058;-68
2022/11/15 06:03:04;;;;;;;65.70;32.20;;;;;;;;;;5124644;27;20024;-68
2022/11/15 06:05:30;;;;;;;56.00;32.53;;;;;;;;;;5127102;27;20035;-69
2022/11/15 06:08:00;;;;;;;70.88;37.58;;;;;;;;;;5110767;27;20254;-69
2022/11/15 06:10:26;;;;;;;58.00;33.20;;;;;;;;;;5118178;27;20090;-69
2022/11/15 06:13:03;;;;;;;70.97;36.58;;;;;;;;;;5127445;27;20031;-68
2022/11/15 06:15:29;;;;;;;61.40;32.05;;;;;;;;;;5126304;27;20039;-69
2022/11/15 06:17:59;;;;;;;64.38;34.78;;;;;;;;;;5110173;27;20039;-70
2022/11/15 06:20:25;;;;;;;62.90;36.17;;;;;;;;;;5125496;27;20569;-68
2022/11/15 06:22:56;;;;;;;65.43;33.72;;;;;;;;;;5127706;27;20096;-69
2022/11/15 06:25:22;;;;;;;57.42;32.15;;;;;;;;;;5105111;28;20028;-69
2022/11/15 06:27:52;;;;;;;70.05;36.70;;;;;;;;;;5111495;27;20035;-69
2022/11/15 06:30:18;;;;;;;65.25;33.80;;;;;;;;;;5127177;27;20058;-69
2022/11/15 06:32:45;;;;;;;55.28;30.65;;;;;;;;;;5109354;27;20039;-69
2022/11/15 06:35:11;;;;;;;56.92;33.40;;;;;;;;;;5124128;27;20067;-69
2022/11/15 06:37:37;;;;;;;64.13;34.97;;;;;;;;;;5128526;27;20119;-69
2022/11/15 06:40:03;;;;;;;51.58;32.55;;;;;;;;;;5105879;27;20083;-69
2022/11/15 06:42:29;;;;;;;69.93;36.30;;;;;;;;;;5124093;27;20037;-69
2022/11/15 06:44:55;;;;;;;58.63;33.65;;;;;;;;;;5123668;27;20563;-69
2022/11/15 06:47:21;;;;;;;58.22;34.22;;;;;;;;;;5118211;27;20027;-70
2022/11/15 06:49:47;;;;;;;64.20;36.05;;;;;;;;;;5128040;27;20114;-69
2022/11/15 06:52:13;;;;;;;57.33;33.17;;;;;;;;;;5108323;27;20031;-69
2022/11/15 06:54:40;;;;;;;67.72;35.50;;;;;;;;;;5124167;27;20036;-69
2022/11/15 06:57:06;;;;;;;67.45;36.47;;;;;;;;;;5126501;27;20042;-69
2022/11/15 06:59:32;;;;;;;64.28;37.85;;;;;;;;;;5123071;27;20120;-69
2022/11/15 07:01:58;;;;;;;57.10;34.92;;;;;;;;;;5107251;27;20392;-69
2022/11/15 07:04:24;;;;;;;62.08;35.67;;;;;;;;;;5121016;27;20381;-69
2022/11/15 07:06:50;;;;;;;66.95;37.03;;;;;;;;;;5102484;27;20067;-69
2022/11/15 07:09:16;;;;;;;71.47;36.25;;;;;;;;;;5125008;27;20046;-68
2022/11/15 07:11:42;;;;;;;54.25;32.92;;;;;;;;;;5125110;27;20035;-69
2022/11/15 07:14:08;;;;;;;57.20;36.63;;;;;;;;;;5091584;27;20507;-69
2022/11/15 07:16:36;;;;;;;58.25;36.40;;;;;;;;;;5106230;27;20080;-69
2022/11/15 07:19:02;;;;;;;69.70;35.65;;;;;;;;;;5118779;27;20048;-69
2022/11/15 07:21:28;;;;;;;71.65;36.97;;;;;;;;;;5121124;27;20031;-69
2022/11/15 07:23:55;;;;;;;66.03;37.55;;;;;;;;;;5104389;27;20446;-70
2022/11/15 07:26:21;;;;;;;73.60;36.58;;;;;;;;;;5117552;27;20511;-69
2022/11/15 07:28:47;;;;;;;60.03;35.20;;;;;;;;;;5108219;27;20031;-69
2022/11/15 07:31:13;;;;;;;65.93;36.53;;;;;;;;;;5110110;27;20349;-69
2022/11/15 07:33:39;;;;;;;61.38;33.67;;;;;;;;;;5107503;27;20124;-69
2022/11/15 07:36:06;;;;;;;49.42;33.20;;;;;;;;;;5128560;27;20035;-69
2022/11/15 07:38:33;;;;;;;55.53;34.67;;;;;;;;;;5123744;27;20147;-69
2022/11/15 07:41:00;;;;;;;61.28;35.50;;;;;;;;;;5119786;27;20035;-69
2022/11/15 07:43:32;;;;;;;70.45;33.13;;;;;;;;;;5119276;27;20509;-68
2022/11/15 07:45:58;;;;;;;56.15;31.85;;;;;;;;;;5121664;27;20435;-69
2022/11/15 07:48:24;;;;;;;54.92;32.90;;;;;;;;;;5107848;27;20408;-69
2022/11/15 07:50:50;;;;;;;53.40;32.28;;;;;;;;;;5124583;27;20033;-69
2022/11/15 07:53:17;;;;;;;49.13;31.10;;;;;;;;;;5109810;27;20035;-69
2022/11/15 07:55:43;;;;;;;54.85;31.80;;;;;;;;;;5106634;27;20144;-69
2022/11/15 07:58:10;;;;;;;50.97;32.25;;;;;;;;;;5125512;27;20053;-69
2022/11/15 08:00:37;;;;;;;47.03;29.05;;;;;;;;;;5120997;27;20042;-69
2022/11/15 08:03:04;;;;;;;46.65;30.17;;;;;;;;;;5123831;27;20039;-69
2022/11/15 08:05:30;;;;;;;47.88;29.98;;;;;;;;;;5126803;27;20063;-69
2022/11/15 08:07:57;;;;;;;45.80;28.90;;;;;;;;;;5124487;27;20047;-69
2022/11/15 08:10:23;;;;;;;44.35;28.25;;;;;;;;;;5107049;27;20058;-69
2022/11/15 08:12:57;;;;;;;47.97;29.58;;;;;;;;;;5116614;27;20115;-69
2022/11/15 08:15:23;;;;;;;44.92;29.10;;;;;;;;;;5117780;28;20043;-69
2022/11/15 08:17:53;;;;;;;42.05;28.05;;;;;;;;;;5122115;28;20035;-69
2022/11/15 08:20:19;;;;;;;44.75;29.08;;;;;;;;;;5117719;28;20047;-69
2022/11/15 08:22:45;;;;;;;45.05;28.00;;;;;;;;;;5123059;28;20042;-69
2022/11/15 08:25:11;;;;;;;42.63;27.38;;;;;;;;;;5122764;28;20066;-69
2022/11/15 08:27:37;;;;;;;39.50;27.35;;;;;;;;;;5107877;28;20043;-69
2022/11/15 08:30:04;;;;;;;41.28;26.77;;;;;;;;;;5095779;28;20042;-69
2022/11/15 08:32:31;;;;;;;45.22;27.48;;;;;;;;;;5115894;28;20100;-69
2022/11/15 08:34:57;;;;;;;35.03;25.98;;;;;;;;;;5127039;28;20104;-69
2022/11/15 08:37:23;;;;;;;38.72;25.17;;;;;;;;;;5107962;28;20039;-69
2022/11/15 08:39:49;;;;;;;39.72;25.27;;;;;;;;;;5119837;28;20039;-69
2022/11/15 08:42:16;;;;;;;42.92;26.10;;;;;;;;;;5121883;28;20118;-68
2022/11/15 08:44:42;;;;;;;41.92;27.30;;;;;;;;;;5124422;28;20031;-69
2022/11/15 08:47:11;;;;;;;40.83;26.00;;;;;;;;;;5126689;28;20039;-69
2022/11/15 08:49:37;;;;;;;41.85;26.80;;;;;;;;;;5106356;28;20495;-70
2022/11/15 08:52:03;;;;;;;38.17;25.95;;;;;;;;;;5090532;28;20039;-69
2022/11/15 08:54:29;;;;;;;36.42;25.00;;;;;;;;;;5123177;28;20058;-69
2022/11/15 08:56:55;;;;;;;43.35;27.25;;;;;;;;;;5104573;28;20039;-69
2022/11/15 08:59:21;;;;;;;43.15;26.50;;;;;;;;;;5125961;28;20050;-70
2022/11/15 09:01:48;;;;;;;37.58;24.95;;;;;;;;;;5107005;28;20039;-69
2022/11/15 09:04:14;;;;;;;41.65;25.42;;;;;;;;;;5124110;28;20048;-69
2022/11/15 09:06:40;;;;;;;38.08;24.58;;;;;;;;;;5124230;28;20130;-69
2022/11/15 09:09:06;;;;;;;38.15;24.33;;;;;;;;;;5119472;28;20047;-69
2022/11/15 09:11:32;;;;;;;35.75;24.02;;;;;;;;;;5090451;28;20043;-69
2022/11/15 09:13:58;;;;;;;41.15;25.52;;;;;;;;;;5087429;28;20118;-69
2022/11/15 09:16:24;;;;;;;37.47;25.15;;;;;;;;;;5124840;28;20556;-69
2022/11/15 09:18:50;;;;;;;34.22;23.20;;;;;;;;;;5124503;28;20663;-69
2022/11/15 09:21:16;;;;;;;39.00;23.83;;;;;;;;;;5105765;28;20035;-69
2022/11/15 09:23:43;;;;;;;34.95;22.30;;;;;;;;;;5124186;28;20089;-69
2022/11/15 09:26:09;;;;;;;32.47;21.75;;;;;;;;;;5118189;28;20043;-69
2022/11/15 09:28:36;;;;;;;31.20;22.33;;;;;;;;;;5118466;27;20443;-69
2022/11/15 09:31:03;;;;;;;35.35;21.48;;;;;;;;;;5122101;27;20503;-69
2022/11/15 09:33:29;;;;;;;32.97;21.30;;;;;;;;;;5118966;27;20031;-69
2022/11/15 09:36:01;;;;;;;35.20;22.15;;;;;;;;;;5120583;27;20046;-70
2022/11/15 09:38:27;;;;;;;28.73;19.73;;;;;;;;;;5120335;27;20112;-69
2022/11/15 09:40:58;;;;;;;32.53;21.17;;;;;;;;;;5126490;27;20104;-69
2022/11/15 09:43:30;;;;;;;29.17;19.20;;;;;;;;;;5128090;27;20453;-69
2022/11/15 09:46:03;;;;;;;31.55;21.60;;;;;;;;;;5124771;27;20550;-70
2022/11/15 09:48:29;;;;;;;31.13;21.40;;;;;;;;;;5108718;27;20111;-69
2022/11/15 09:50:58;;;;;;;33.35;19.73;;;;;;;;;;5121015;27;20430;-70
2022/11/15 09:53:33;;;;;;;34.22;21.48;;;;;;;;;;5122398;27;20122;-69
2022/11/15 09:56:01;;;;;;;40.53;22.10;;;;;;;;;;5125382;27;20043;-69
2022/11/15 09:58:33;;;;;;;33.17;20.83;;;;;;;;;;5126486;27;20086;-68
2022/11/15 10:01:01;;;;;;;28.25;20.20;;;;;;;;;;5122824;27;20512;-69
2022/11/15 10:03:29;;;;;;;34.10;21.13;;;;;;;;;;5127170;27;20053;-69
2022/11/15 10:05:58;;;;;;;38.75;21.58;;;;;;;;;;5121817;27;20040;-69
2022/11/15 10:08:27;;;;;;;27.80;19.25;;;;;;;;;;5126542;27;20066;-69
2022/11/15 10:10:55;;;;;;;33.67;20.55;;;;;;;;;;5122038;27;20446;-69
2022/11/15 10:13:26;;;;;;;34.40;20.95;;;;;;;;;;5126231;27;20042;-69
2022/11/15 10:15:54;;;;;;;26.80;20.73;;;;;;;;;;5123907;27;20047;-69
2022/11/15 10:18:28;;;;;;;27.23;19.90;;;;;;;;;;5123451;27;20036;-69
2022/11/15 10:20:59;;;;;;;31.02;19.05;;;;;;;;;;5126841;27;20031;-69
2022/11/15 10:23:26;;;;;;;28.67;19.63;;;;;;;;;;5122663;27;20119;-69
2022/11/15 10:25:57;;;;;;;27.98;19.85;;;;;;;;;;5106488;27;20042;-69
2022/11/15 10:28:31;;;;;;;28.35;20.27;;;;;;;;;;5116678;27;20082;-68
2022/11/15 10:30:58;;;;;;;34.15;20.95;;;;;;;;;;5122001;27;20441;-69
2022/11/15 10:33:26;;;;;;;31.75;20.38;;;;;;;;;;5111413;27;20092;-70
2022/11/15 10:36:12;;;;;;;28.70;19.23;;;;;;;;;;5116307;27;20043;-69
2022/11/15 10:38:50;;;;;;;28.10;18.23;;;;;;;;;;5108257;27;20480;-69
2022/11/15 10:41:22;;;;;;;24.70;17.65;;;;;;;;;;5121364;27;20090;-69
2022/11/15 10:44:07;;;;;;;27.92;17.73;;;;;;;;;;5115585;27;20057;-69
2022/11/15 10:46:36;;;;;;;29.98;19.60;;;;;;;;;;5114819;27;20031;-68
2022/11/15 10:49:12;;;;;;;22.17;18.02;;;;;;;;;;5121110;27;20254;-69
2022/11/15 10:51:42;;;;;;;24.80;17.35;;;;;;;;;;5124222;27;20266;-69
2022/11/15 10:54:11;;;;;;;27.38;17.13;;;;;;;;;;5126667;27;20039;-69
2022/11/15 10:56:37;;;;;;;23.60;16.45;;;20.30;87.60;;;;;;5114172;27;20496;-69
2022/11/15 10:59:03;;;;;;;26.60;17.27;;;;;;;;;;5119844;27;20299;-70
2022/11/15 11:01:30;;;;;;;24.98;16.38;;;;;;;;;;5120985;27;20118;-69
2022/11/15 11:03:59;;;;;;;22.05;15.15;;;;;;;;;;5101445;27;20044;-69
2022/11/15 11:06:25;;;;;;;28.55;16.80;;;;;;;;;;5121103;27;20084;-69
2022/11/15 11:08:58;;;;;;;27.05;16.83;;;;;;;;;;5122921;27;20115;-69
2022/11/15 11:11:25;;;;;;;22.80;15.60;;;;;;;;;;5121401;27;20038;-69
2022/11/15 11:13:52;;;;;;;23.67;16.50;;;;;;;;;;5119274;27;20036;-69
2022/11/15 11:16:22;;;;;;;24.70;14.90;;;;;;;;;;5113700;27;20067;-69
2022/11/15 11:19:06;;;;;;;21.23;16.02;;;;;;;;;;5122289;27;20027;-68
2022/11/15 11:21:32;;;;;;;25.95;16.48;;;;;;;;;;5123436;27;20110;-69
2022/11/15 11:24:04;;;;;;;21.02;14.77;;;;;;;;;;5104066;28;20047;-69
2022/11/15 11:26:34;;;;;;;18.90;14.60;;;;;;;;;;5107960;27;20057;-70
2022/11/15 11:29:00;;;;;;;22.90;15.40;;;;;;;;;;5118845;27;20308;-69
2022/11/15 11:31:36;;;;;;;22.33;13.82;;;;;;;;;;5105106;27;20031;-70
2022/11/15 11:34:21;;;;;;;24.77;14.00;;;;;;;;;;5113960;27;20039;-69
2022/11/15 11:36:53;;;;;;;23.95;13.73;;;;;;;;;;5124526;27;20031;-69
2022/11/15 11:39:23;;;;;;;23.42;13.20;;;;;;;;;;5104508;27;20101;-69
2022/11/15 11:41:52;;;;;;;21.73;14.52;;;;;;;;;;5119080;27;20509;-69
2022/11/15 11:44:24;;;;;;;15.98;11.32;;;;;;;;;;5126433;27;20067;-69
2022/11/15 11:47:08;;;;;;;15.63;12.77;;;;;;;;;;5123888;27;20085;-70
2022/11/15 11:49:49;;;;;;;19.33;11.77;;;;;;;;;;5118852;27;20039;-69
2022/11/15 11:52:19;;;;;;;17.80;11.65;;;;;;;;;;5102604;27;20043;-69
2022/11/15 11:55:04;;;;;;;18.55;10.25;;;;;;;;;;5116399;27;20446;-69
2022/11/15 11:57:36;;;;;;;13.60;9.48;;;;;;;;;;5126969;27;20450;-69
2022/11/15 12:00:14;;;;;;;18.48;10.45;;;;;;;;;;5122716;27;20056;-69
2022/11/15 12:02:46;;;;;;;20.63;10.43;;;;;;;;;;5117232;27;20031;-69
2022/11/15 12:05:27;;;;;;;12.63;8.90;;;;;;;;;;5125077;27;20123;-69
2022/11/15 12:07:55;;;;;;;12.25;8.73;;;;;;;;;;5120280;27;20041;-69
2022/11/15 12:10:23;;;;;;;16.63;9.00;;;;;;;;;;5122085;27;20039;-70
2022/11/15 12:12:54;;;;;;;20.85;9.82;;;;;;;;;;5106454;28;20047;-70
2022/11/15 12:15:30;;;;;;;11.52;8.52;;;;;;;;;;5101571;28;20041;-69
2022/11/15 12:17:57;;;;;;;15.45;9.23;;;;;;;;;;5121633;28;20359;-69
2022/11/15 12:20:24;;;;;;;10.57;8.30;;;;;;;;;;5116538;28;20076;-69
2022/11/15 12:23:07;;;;;;;10.52;7.55;;;;;;;;;;5103786;28;20035;-69
2022/11/15 12:25:33;;;;;;;;;;;;;;;;;;5104255;28;20439;-69
2022/11/15 12:28:07;;;;;;;11.18;7.57;;;;;;;;;;5106255;28;19998;-69
2022/11/15 12:30:52;;;;;;;11.82;8.32;;;;;;;;;;5103027;28;20038;-69
2022/11/15 12:33:36;;;;;;;13.30;7.78;;;11.70;99.90;;;;;;5124553;28;20038;-69
2022/11/15 12:36:08;;;;;;;11.15;7.25;;;12.20;99.90;;;;;;5116644;28;20051;-69
2022/11/15 12:38:55;;;;;;;10.70;7.93;;;12.10;99.90;;;;;;5101140;28;20039;-70
2022/11/15 12:41:23;;;;;;;10.10;7.00;;;12.10;99.90;;;;;;5100454;28;20039;-69
2022/11/15 12:43:49;;;;;;;11.52;7.80;;;12.10;99.90;;;;;;5117407;28;20038;-69
2022/11/15 12:46:29;;;;;;;10.27;6.65;;;12.20;99.90;;;;;;5122272;28;20036;-70
2022/11/15 12:49:00;;;;;;;9.20;6.18;;;12.20;99.90;;;;;;5122420;28;20064;-70
2022/11/15 12:51:58;;;;;;;11.30;8.02;;;12.20;99.90;;;;;;5116938;28;20054;-70
2022/11/15 12:54:24;;;;;;;13.57;6.82;;;;;;;;;;5072605;28;20043;-69
2022/11/15 12:57:06;;;;;;;8.13;6.55;;;;;;;;;;5117276;28;20369;-69
2022/11/15 12:59:54;;;;;;;9.00;5.43;;;;;;;;;;5098991;28;20673;-69
2022/11/15 13:02:36;;;;;;;7.43;5.68;;;;;;;;;;5105949;28;20442;-69
2022/11/15 13:05:22;;;;;;;6.88;5.43;;;;;;;;;;5129894;27;20054;-69
2022/11/15 13:07:48;;;;;;;8.93;5.03;;;;;;;;;;5121671;27;20039;-69
2022/11/15 13:10:14;;;;;;;8.20;4.93;;;;;;;;;;5106534;27;20749;-69
2022/11/15 13:12:46;;;;;;;5.40;4.03;;;;;;;;;;5104998;27;20684;-69
2022/11/15 13:15:12;;;;;;;6.90;4.63;;;;;;;;;;5121787;27;20504;-69
2022/11/15 13:17:42;;;;;;;9.25;5.05;;;12.30;99.90;;;;;;5121668;27;20031;-69
2022/11/15 13:20:14;;;;;;;10.30;5.55;;;;;;;;;;5125527;27;20035;-69
2022/11/15 13:22:59;;;;;;;5.80;3.65;;;;;;;;;;5124957;27;20043;-69
2022/11/15 13:25:55;;;;;;;8.82;3.97;;;12.90;99.90;;;;;;5124205;27;20123;-69
2022/11/15 13:28:32;;;;;;;6.35;3.83;;;;;;;;;;5127166;27;20039;-69
2022/11/15 13:31:04;;;;;;;6.28;3.67;;;14.10;99.90;;;;;;5121892;27;20405;-69
2022/11/15 13:33:29;;;;;;;5.23;3.90;;;15.00;99.90;;;;;;5123340;27;20198;-69
2022/11/15 13:35:58;;;;;;;5.55;3.80;;;15.30;99.90;;;;;;5120912;27;20774;-70
2022/11/15 13:38:24;;;;;;;5.57;3.97;;;15.30;99.90;;;;;;5125807;27;20412;-70
2022/11/15 13:40:51;;;;;;;5.63;3.60;;;;;;;;;;5122989;27;20042;-70
2022/11/15 13:43:22;;;;;;;5.28;3.63;;;15.40;99.90;;;;;;5125098;27;20608;-70
2022/11/15 13:46:10;;;;;;;4.55;3.28;;;15.30;99.90;;;;;;5127022;27;20070;-70
2022/11/15 13:48:36;;;;;;;4.32;3.45;;;15.00;99.90;;;;;;5123916;27;20100;-69
2022/11/15 13:51:17;;;;;;;6.47;3.13;;;14.70;99.90;;;;;;5122581;27;20056;-70
2022/11/15 13:53:47;;;;;;;4.65;3.42;;;14.40;99.90;;;;;;5120418;27;20080;-69
2022/11/15 13:56:16;;;;;;;4.03;2.88;;;14.10;99.90;;;;;;5122477;27;20134;-69
2022/11/15 13:58:42;;;;;;;5.25;3.33;;;13.90;99.90;;;;;;5127703;27;20095;-69
2022/11/15 14:01:14;;;;;;;6.03;2.97;;;;;;;;;;5107575;27;20051;-69
2022/11/15 14:03:48;;;;;;;7.03;3.17;;;;;;;;;;5128671;27;20035;-68
2022/11/15 14:06:15;;;;;;;6.32;3.83;;;;;;;;;;5121459;27;20042;-70
2022/11/15 14:09:00;;;;;;;5.40;3.25;;;;;;;;;;5118325;27;20070;-69
2022/11/15 14:11:26;;;;;;;4.53;2.67;;;;;;;;;;5124241;27;20045;-69
2022/11/15 14:14:07;;;;;;;5.68;3.05;;;;;;;;;;5127951;27;20254;-69
2022/11/15 14:16:54;;;;;;;4.63;3.28;;;;;;;;;;5119659;27;20031;-69
2022/11/15 14:19:21;;;;;;;5.68;3.40;;;;;;;;;;5116385;27;20031;-69
2022/11/15 14:22:06;;;;;;;4.53;2.72;;;;;;;;;;5113507;27;20034;-69
2022/11/15 14:24:32;;;;;;;5.40;2.78;;;;;;;;;;5118344;27;20028;-69
2022/11/15 14:27:15;;;;;;;3.75;2.65;;;;;;;;;;5118284;27;20481;-69
2022/11/15 14:29:41;;;;;;;5.82;3.22;;;;;;;;;;5120956;27;20343;-69
2022/11/15 14:32:21;;;;;;;7.97;2.92;;;13.70;99.90;;;;;;5128499;27;20045;-69